Time;durP1;ratioP1;P1;durP2;ratioP2;P2;SDS_P1;SDS_P2;PMS_P1;PMS_P2;Temp;Humidity;BMP_temperature;BMP_pressure;BME280_temperature;BME280_humidity;BME280_pressure;Samples;Min_cycle;Max_cycle;Signal;HPM_P1;HPM_P2
2022/02/26 00:00:39;;;;;;;7.65;2.53;;;2.40;99.90;;;;;;6188896;23;19938;-77
2022/02/26 00:03:06;;;;;;;7.85;2.78;;;2.20;99.90;;;;;;6188538;23;20024;-78
2022/02/26 00:05:32;;;;;;;8.10;2.45;;;2.70;99.90;;;;;;6208231;23;20098;-78
2022/02/26 00:07:57;;;;;;;15.88;2.40;;;2.60;99.90;;;;;;6187746;23;20785;-77
2022/02/26 00:10:23;;;;;;;4.78;1.98;;;2.20;99.90;;;;;;6161702;23;20023;-76
2022/02/26 00:12:52;;;;;;;8.77;2.08;;;2.20;99.90;;;;;;6185092;23;20085;-78
2022/02/26 00:15:19;;;;;;;4.75;2.58;;;2.20;99.90;;;;;;6162907;23;20016;-78
2022/02/26 00:17:45;;;;;;;18.70;2.20;;;2.80;99.90;;;;;;6213754;23;20016;-78
2022/02/26 00:20:11;;;;;;;;;;;2.10;99.90;;;;;;6214761;23;20056;-76
2022/02/26 00:22:37;;;;;;;11.68;2.55;;;2.20;99.90;;;;;;6215310;23;19941;-77
2022/02/26 00:25:03;;;;;;;11.18;2.47;;;2.30;99.90;;;;;;6215428;23;20020;-77
2022/02/26 00:27:28;;;;;;;;;;;2.20;99.90;;;;;;6164303;23;20111;-77
2022/02/26 00:29:54;;;;;;;9.43;2.13;;;2.60;99.90;;;;;;6214901;23;19919;-78
2022/02/26 00:32:20;;;;;;;5.35;2.05;;;2.30;99.90;;;;;;6191295;23;20050;-79
2022/02/26 00:34:46;;;;;;;8.48;2.60;;;2.80;99.90;;;;;;6215834;23;20232;-79
2022/02/26 00:37:11;;;;;;;17.60;2.45;;;2.50;99.90;;;;;;6166496;23;20124;-76
2022/02/26 00:39:37;;;;;;;7.53;2.92;;;2.20;99.90;;;;;;6215227;23;20099;-77
2022/02/26 00:42:03;;;;;;;19.08;3.58;;;2.70;99.90;;;;;;6165463;23;20501;-77
2022/02/26 00:44:29;;;;;;;8.35;1.90;;;1.90;99.90;;;;;;6215322;23;20027;-77
2022/02/26 00:46:55;;;;;;;16.75;3.28;;;3.10;99.90;;;;;;6215635;23;20020;-78
2022/02/26 00:52:05;;;;;;;4.65;2.95;;;2.00;99.90;;;;;;6193650;23;20470;-76
2022/02/26 00:54:30;;;;;;;5.72;1.92;;;1.90;99.90;;;;;;6216324;23;20012;-78
2022/02/26 00:56:56;;;;;;;11.40;2.58;;;1.70;99.90;;;;;;6216586;23;20080;-77
2022/02/26 00:59:22;;;;;;;3.13;2.10;;;1.80;99.90;;;;;;6213623;23;20103;-78
2022/02/26 01:01:47;;;;;;;5.00;2.35;;;1.90;99.90;;;;;;6216548;23;20344;-78
2022/02/26 01:04:14;;;;;;;5.43;2.33;;;1.90;99.90;;;;;;6190921;23;20020;-78
2022/02/26 01:06:40;;;;;;;6.55;2.83;;;1.90;99.90;;;;;;6216571;23;20078;-79
2022/02/26 01:09:06;;;;;;;5.72;2.38;;;2.20;99.90;;;;;;6189877;23;20024;-78
2022/02/26 01:11:31;;;;;;;;;;;1.50;99.90;;;;;;6215159;23;20059;-77
2022/02/26 01:14:00;;;;;;;6.60;1.90;;;1.40;99.90;;;;;;6190044;23;19918;-76
2022/02/26 01:16:26;;;;;;;20.52;2.22;;;1.00;99.90;;;;;;6215316;23;20043;-77
2022/02/26 01:18:52;;;;;;;4.70;2.25;;;0.90;99.90;;;;;;6191671;23;20444;-77
2022/02/26 01:21:22;;;;;;;9.55;2.38;;;0.80;99.90;;;;;;6215131;23;20470;-77
2022/02/26 01:23:48;;;;;;;16.40;2.42;;;0.70;99.90;;;;;;6215885;23;20016;-78
2022/02/26 01:26:18;;;;;;;;;;;0.70;99.90;;;;;;6189376;23;20348;-78
2022/02/26 01:28:44;;;;;;;2.97;1.67;;;0.70;99.90;;;;;;6215308;23;19923;-76
2022/02/26 01:31:10;;;;;;;7.63;2.47;;;0.70;99.90;;;;;;6214602;23;20015;-77
2022/02/26 01:33:36;;;;;;;;;;;0.70;99.90;;;;;;6217350;23;20106;-79
2022/02/26 01:36:01;;;;;;;3.60;1.80;;;0.60;99.90;;;;;;6190690;23;19919;-77
2022/02/26 01:38:27;;;;;;;3.05;1.77;;;0.60;99.90;;;;;;6215653;23;20012;-78
2022/02/26 01:40:53;;;;;;;2.78;1.50;;;0.50;99.90;;;;;;6190122;23;20034;-78
2022/02/26 01:43:19;;;;;;;2.03;1.55;;;0.50;99.90;;;;;;6215150;23;20071;-77
2022/02/26 01:45:45;;;;;;;7.07;2.00;;;0.40;99.90;;;;;;6191293;23;20020;-78
2022/02/26 01:48:10;;;;;;;7.57;1.98;;;0.30;99.90;;;;;;6209949;23;20413;-76
2022/02/26 01:50:36;;;;;;;7.38;1.88;;;0.20;99.90;;;;;;6187508;23;20016;-78
2022/02/26 01:53:04;;;;;;;11.88;1.92;;;0.10;99.90;;;;;;6215444;23;20066;-77
2022/02/26 01:55:30;;;;;;;4.53;1.75;;;0.00;99.90;;;;;;6215220;23;20023;-77
2022/02/26 01:57:56;;;;;;;5.53;2.10;;;0.00;99.90;;;;;;6216581;23;20047;-77
2022/02/26 02:00:22;;;;;;;;;;;0.00;99.90;;;;;;6191182;23;20026;-77
2022/02/26 02:02:48;;;;;;;11.85;1.75;;;0.10;99.90;;;;;;6191176;23;19911;-76
2022/02/26 02:05:14;;;;;;;9.88;2.10;;;0.20;99.90;;;;;;6214785;23;20024;-75
2022/02/26 02:07:40;;;;;;;;;;;0.30;99.90;;;;;;6216744;23;20344;-77
2022/02/26 02:10:06;;;;;;;10.70;1.48;;;0.30;99.90;;;;;;6216519;23;19915;-76
2022/02/26 02:12:32;;;;;;;;;;;0.20;99.90;;;;;;6191019;23;20455;-77
2022/02/26 02:14:58;;;;;;;7.07;2.50;;;0.10;99.90;;;;;;6215708;23;19958;-76
2022/02/26 02:17:23;;;;;;;;;;;0.00;99.90;;;;;;6215750;23;20012;-77
2022/02/26 02:19:50;;;;;;;21.90;2.40;;;-0.10;99.90;;;;;;6189743;23;19911;-77
2022/02/26 02:22:20;;;;;;;12.82;2.78;;;-0.20;99.90;;;;;;6190463;23;20020;-78
2022/02/26 02:24:47;;;;;;;5.18;2.67;;;-0.30;99.90;;;;;;6208413;23;20447;-77
2022/02/26 02:27:16;;;;;;;9.70;3.35;;;-0.40;99.90;;;;;;6186585;23;20123;-76
2022/02/26 02:29:42;;;;;;;3.70;1.70;;;-0.40;99.90;;;;;;6213735;23;20084;-78
2022/02/26 02:32:09;;;;;;;7.88;1.75;;;-0.30;99.90;;;;;;6214714;23;20095;-78
2022/02/26 02:34:34;;;;;;;;;;;-0.20;99.90;;;;;;6189651;23;20340;-78
2022/02/26 02:37:00;;;;;;;4.57;1.65;;;-0.20;99.90;;;;;;6215882;23;19918;-76
2022/02/26 02:39:26;;;;;;;3.22;2.08;;;-0.10;99.90;;;;;;6215699;23;20031;-77
2022/02/26 02:41:52;;;;;;;;;;;0.00;99.90;;;;;;6191355;23;20047;-77
2022/02/26 02:44:18;;;;;;;3.92;1.75;;;0.00;99.90;;;;;;6189208;23;19991;-77
2022/02/26 02:46:43;;;;;;;;;;;-0.10;99.90;;;;;;6215021;23;20024;-79
2022/02/26 02:49:10;;;;;;;7.10;1.98;;;0.00;99.90;;;;;;6214346;23;20239;-77
2022/02/26 02:51:36;;;;;;;1.70;1.55;;;0.00;99.90;;;;;;6215644;23;20016;-77
2022/02/26 02:54:02;;;;;;;;;;;0.00;99.90;;;;;;6191699;23;20078;-78
2022/02/26 02:56:28;;;;;;;7.80;2.45;;;0.10;99.90;;;;;;6215727;23;19978;-78
2022/02/26 02:58:54;;;;;;;3.63;2.03;;;0.10;99.90;;;;;;6190896;23;20083;-75
2022/02/26 03:01:19;;;;;;;7.68;1.80;;;0.10;99.90;;;;;;6215769;23;20435;-78
2022/02/26 03:03:45;;;;;;;5.95;2.72;;;0.10;99.90;;;;;;6189986;23;20023;-79
2022/02/26 03:06:11;;;;;;;11.55;3.25;;;0.10;99.90;;;;;;6216113;23;20043;-77
2022/02/26 03:08:37;;;;;;;13.68;2.15;;;0.00;99.90;;;;;;6190558;23;20545;-79
2022/02/26 03:11:02;;;;;;;12.82;2.95;;;0.00;99.90;;;;;;6166237;23;20077;-77
2022/02/26 03:13:29;;;;;;;8.70;2.53;;;0.00;99.90;;;;;;6185255;23;20021;-77
2022/02/26 03:15:56;;;;;;;5.45;2.80;;;-0.10;99.90;;;;;;6188295;23;20091;-78
2022/02/26 03:18:24;;;;;;;13.90;2.28;;;0.00;99.90;;;;;;6184166;23;20020;-77
2022/02/26 03:20:50;;;;;;;6.32;2.67;;;0.20;99.90;;;;;;6186419;23;20013;-77
2022/02/26 03:23:16;;;;;;;;;;;0.10;99.90;;;;;;6215896;23;20016;-78
2022/02/26 03:25:41;;;;;;;8.63;2.38;;;0.00;99.90;;;;;;6214258;23;20006;-77
2022/02/26 03:28:07;;;;;;;3.28;1.63;;;0.00;99.90;;;;;;6188947;23;20020;-78
2022/02/26 03:30:34;;;;;;;4.63;2.80;;;0.00;99.90;;;;;;6189287;23;20013;-78
2022/02/26 03:33:00;;;;;;;8.23;2.35;;;0.00;99.90;;;;;;6188703;23;20378;-78
2022/02/26 03:35:26;;;;;;;3.17;2.58;;;0.00;99.90;;;;;;6213194;23;20026;-78
2022/02/26 03:37:52;;;;;;;9.30;2.97;;;0.00;99.90;;;;;;6214609;23;20024;-77
2022/02/26 03:40:18;;;;;;;8.20;2.00;;;0.10;99.90;;;;;;6213701;23;20062;-77
2022/02/26 03:42:44;;;;;;;7.40;1.88;;;0.10;99.90;;;;;;6214585;23;20020;-77
2022/02/26 03:45:11;;;;;;;22.25;3.28;;;0.10;99.90;;;;;;6159233;23;20023;-78
2022/02/26 03:47:37;;;;;;;8.85;2.28;;;0.10;99.90;;;;;;6160036;23;20052;-77
2022/02/26 03:50:04;;;;;;;11.05;3.55;;;0.20;99.90;;;;;;6157940;23;20317;-78
2022/02/26 03:52:30;;;;;;;5.85;1.50;;;0.20;99.90;;;;;;6157957;23;20027;-77
2022/02/26 03:54:56;;;;;;;17.23;2.60;;;0.10;99.90;;;;;;6159499;23;20020;-77
2022/02/26 03:57:22;;;;;;;;;;;0.30;99.90;;;;;;6160454;23;20051;-77
2022/02/26 03:59:51;;;;;;;10.63;2.65;;;0.00;99.90;;;;;;6185445;23;19916;-78
2022/02/26 04:02:18;;;;;;;6.47;2.05;;;0.60;99.90;;;;;;6185225;23;20040;-77
2022/02/26 04:04:44;;;;;;;7.90;3.22;;;-0.20;99.90;;;;;;6158023;23;20426;-76
2022/02/26 04:07:09;;;;;;;6.43;2.83;;;-0.20;99.90;;;;;;6184922;23;20019;-76
2022/02/26 04:09:35;;;;;;;10.95;2.40;;;-0.20;99.90;;;;;;6159521;23;20086;-79
2022/02/26 04:12:01;;;;;;;6.32;1.90;;;-0.10;99.90;;;;;;6135455;23;20021;-77
2022/02/26 04:14:27;;;;;;;;;;;-0.10;99.90;;;;;;6159552;23;20024;-78
2022/02/26 04:16:52;;;;;;;6.13;1.90;;;-0.10;99.90;;;;;;6185785;23;20223;-78
2022/02/26 04:19:18;;;;;;;3.75;1.88;;;-0.10;99.90;;;;;;6159990;23;20020;-77
2022/02/26 04:21:45;;;;;;;10.88;1.88;;;-0.10;99.90;;;;;;6137129;23;20016;-79
2022/02/26 04:24:11;;;;;;;5.18;2.08;;;-0.10;99.90;;;;;;6186731;23;20023;-77
2022/02/26 04:26:37;;;;;;;8.18;2.00;;;-0.20;99.90;;;;;;6185613;23;20086;-78
2022/02/26 04:29:02;;;;;;;6.38;2.70;;;-0.20;99.90;;;;;;6161191;23;20017;-78
2022/02/26 04:31:28;;;;;;;10.00;3.25;;;-0.20;99.90;;;;;;6161346;23;20389;-77
2022/02/26 04:33:54;;;;;;;2.35;1.65;;;-0.20;99.90;;;;;;6185041;23;20398;-77
2022/02/26 04:36:19;;;;;;;12.13;2.35;;;-0.40;99.90;;;;;;6161231;23;20020;-77
2022/02/26 04:38:45;;;;;;;9.90;2.50;;;-0.50;99.90;;;;;;6160969;23;20024;-77
2022/02/26 04:41:11;;;;;;;;;;;-0.60;99.90;;;;;;6185868;23;20020;-79
2022/02/26 04:43:39;;;;;;;5.13;2.35;;;-0.60;99.90;;;;;;6134583;23;20224;-78
2022/02/26 04:46:05;;;;;;;5.32;1.83;;;-0.60;99.90;;;;;;6208791;23;20025;-76
2022/02/26 04:48:32;;;;;;;4.28;1.90;;;-0.70;99.90;;;;;;6209266;23;20479;-77
2022/02/26 04:50:58;;;;;;;8.68;2.47;;;-0.60;99.90;;;;;;6191128;23;20012;-78
2022/02/26 04:53:24;;;;;;;5.88;2.58;;;-0.50;99.90;;;;;;6191038;23;20023;-77
2022/02/26 04:55:50;;;;;;;6.38;2.22;;;-0.40;99.90;;;;;;6216020;23;20447;-78
2022/02/26 04:58:17;;;;;;;2.33;1.88;;;-0.30;99.90;;;;;;6215614;23;20608;-78
2022/02/26 05:00:43;;;;;;;10.50;3.00;;;-0.30;99.90;;;;;;6190401;23;20043;-78
2022/02/26 05:03:09;;;;;;;5.07;1.90;;;-0.20;99.90;;;;;;6189848;23;20020;-77
2022/02/26 05:05:35;;;;;;;2.80;1.83;;;-0.20;99.90;;;;;;6215280;23;20020;-77
2022/02/26 05:08:01;;;;;;;;;;;0.00;99.90;;;;;;6216130;23;20020;-78
2022/02/26 05:10:27;;;;;;;6.40;2.17;;;-0.20;99.90;;;;;;6215417;23;19962;-78
2022/02/26 05:12:52;;;;;;;8.70;2.47;;;-0.30;99.90;;;;;;6215345;23;20024;-77
2022/02/26 05:15:19;;;;;;;2.28;1.67;;;-0.30;99.90;;;;;;6189209;23;20034;-77
2022/02/26 05:17:45;;;;;;;6.82;2.65;;;-0.40;99.90;;;;;;6189812;23;20038;-76
2022/02/26 05:20:12;;;;;;;4.38;1.88;;;-0.50;99.90;;;;;;6214858;23;20121;-77
2022/02/26 05:22:39;;;;;;;7.43;2.65;;;-0.70;99.90;;;;;;6189484;23;20016;-78
2022/02/26 05:25:06;;;;;;;6.63;3.13;;;-0.80;99.90;;;;;;6189453;23;20024;-78
2022/02/26 05:27:32;;;;;;;4.65;2.40;;;-1.00;99.90;;;;;;6189868;23;20019;-77
2022/02/26 05:29:58;;;;;;;3.40;1.88;;;-1.10;99.90;;;;;;6190039;23;20106;-78
2022/02/26 05:32:24;;;;;;;2.65;2.22;;;-1.20;99.90;;;;;;6215613;23;20403;-77
2022/02/26 05:34:51;;;;;;;6.80;2.63;;;-1.40;99.90;;;;;;6188870;23;20012;-76
2022/02/26 05:37:18;;;;;;;6.32;1.88;;;-1.50;99.90;;;;;;6215753;23;20095;-79
2022/02/26 05:39:44;;;;;;;4.57;2.38;;;-1.50;99.90;;;;;;6190141;23;20035;-78
2022/02/26 05:42:10;;;;;;;8.02;2.47;;;-1.60;99.90;;;;;;6216201;23;20020;-78
2022/02/26 05:44:37;;;;;;;;;;;-1.70;99.90;;;;;;6190117;23;20016;-79
2022/02/26 05:47:03;;;;;;;11.55;1.92;;;-1.70;99.90;;;;;;6190524;23;19923;-77
2022/02/26 05:49:29;;;;;;;5.38;2.47;;;-1.80;99.90;;;;;;6188761;23;20019;-79
2022/02/26 05:51:54;;;;;;;10.27;2.83;;;-1.80;99.90;;;;;;6215509;23;20078;-77
2022/02/26 05:54:20;;;;;;;7.93;2.55;;;-1.70;99.90;;;;;;6190598;23;20070;-79
2022/02/26 05:56:46;;;;;;;;;;;-1.60;99.90;;;;;;6214592;23;20070;-77
2022/02/26 05:59:12;;;;;;;2.33;1.92;;;-1.50;99.90;;;;;;6190678;23;19953;-77
2022/02/26 06:01:38;;;;;;;3.17;1.75;;;-1.50;99.90;;;;;;6165773;23;20020;-78
2022/02/26 06:04:04;;;;;;;1.92;1.63;;;-1.60;99.90;;;;;;6189971;23;20128;-77
2022/02/26 06:06:30;;;;;;;8.68;1.80;;;-1.70;99.90;;;;;;6215495;23;20027;-78
2022/02/26 06:08:55;;;;;;;;;;;-1.70;99.90;;;;;;6166482;23;20027;-79
2022/02/26 06:11:21;;;;;;;2.50;1.50;;;-1.80;99.90;;;;;;6190960;23;20466;-78
2022/02/26 06:13:47;;;;;;;;;;;-1.90;99.90;;;;;;6190618;23;20096;-78
2022/02/26 06:16:14;;;;;;;3.45;1.88;;;-1.90;99.90;;;;;;6191014;23;20284;-79
2022/02/26 06:18:40;;;;;;;7.68;1.88;;;-1.90;99.90;;;;;;6188976;23;20095;-76
2022/02/26 06:21:06;;;;;;;5.70;2.63;;;-3.00;99.90;;;;;;6189546;23;20024;-77
2022/02/26 06:23:32;;;;;;;3.67;2.15;;;-1.90;99.90;;;;;;6214782;23;20026;-78
2022/02/26 06:25:57;;;;;;;;;;;-1.80;99.90;;;;;;6213784;23;20159;-76
2022/02/26 06:28:23;;;;;;;8.52;2.88;;;-1.80;99.90;;;;;;6189562;23;19918;-77
2022/02/26 06:30:49;;;;;;;;;;;-1.80;99.90;;;;;;6189487;23;20020;-77
2022/02/26 06:33:14;;;;;;;2.95;1.80;;;-1.70;99.90;;;;;;6214557;23;20221;-78
2022/02/26 06:35:41;;;;;;;2.92;1.98;;;-1.50;99.90;;;;;;6190362;23;20012;-77
2022/02/26 06:38:07;;;;;;;3.40;1.83;;;-1.50;99.90;;;;;;6190699;23;20016;-77
2022/02/26 06:40:33;;;;;;;12.32;3.00;;;-1.40;99.90;;;;;;6241672;23;20024;-79
2022/02/26 06:42:59;;;;;;;;;;;-1.40;99.90;;;;;;6215196;23;20067;-78
2022/02/26 06:45:25;;;;;;;5.78;2.00;;;-1.40;99.90;;;;;;6189658;23;19912;-79
2022/02/26 06:47:51;;;;;;;6.10;1.92;;;-1.40;99.90;;;;;;6164338;23;20032;-77
2022/02/26 06:50:17;;;;;;;10.13;2.03;;;-1.30;99.90;;;;;;6214295;23;20095;-79
2022/02/26 06:52:43;;;;;;;5.15;2.42;;;-1.30;99.90;;;;;;6218371;23;20480;-76
2022/02/26 06:55:09;;;;;;;2.25;1.90;;;-1.30;99.90;;;;;;6199459;23;20016;-77
2022/02/26 06:57:34;;;;;;;;;;;-1.30;99.90;;;;;;6215428;23;20356;-77
2022/02/26 07:00:01;;;;;;;2.13;1.92;;;-1.30;99.90;;;;;;6188490;23;19911;-77
2022/02/26 07:02:26;;;;;;;6.22;2.55;;;-1.30;99.90;;;;;;6214663;23;20482;-76
2022/02/26 07:04:52;;;;;;;8.50;2.33;;;-1.30;99.90;;;;;;6188289;23;20020;-79
2022/02/26 07:07:18;;;;;;;;;;;-1.30;99.90;;;;;;6190781;23;20020;-78
2022/02/26 07:09:46;;;;;;;5.38;1.98;;;-1.20;99.90;;;;;;6189072;23;19916;-78
2022/02/26 07:12:12;;;;;;;16.63;3.17;;;-1.20;99.90;;;;;;6215297;23;20024;-78
2022/02/26 07:14:38;;;;;;;;;;;-1.20;99.90;;;;;;6210454;23;20016;-78
2022/02/26 07:17:04;;;;;;;3.30;1.98;;;-1.20;99.90;;;;;;6192143;23;19991;-85
2022/02/26 07:19:30;;;;;;;8.63;2.55;;;-1.20;99.90;;;;;;6189458;23;20019;-81
2022/02/26 07:21:57;;;;;;;6.18;2.30;;;-1.10;99.90;;;;;;6165386;23;20043;-84
2022/02/26 07:24:23;;;;;;;4.80;2.13;;;0.10;99.90;;;;;;6189581;23;20012;-79
2022/02/26 07:26:49;;;;;;;3.42;2.40;;;1.10;99.90;;;;;;6190150;23;20095;-79
2022/02/26 07:29:15;;;;;;;15.25;3.28;;;-0.90;99.90;;;;;;6215108;23;20016;-79
2022/02/26 07:31:41;;;;;;;12.50;2.58;;;-0.60;99.90;;;;;;6192646;23;20020;-80
2022/02/26 07:34:06;;;;;;;7.38;2.83;;;-0.40;99.90;;;;;;6215302;23;20020;-81
2022/02/26 07:36:32;;;;;;;9.52;3.00;;;-0.20;99.90;;;;;;6215258;23;20047;-81
2022/02/26 07:38:58;;;;;;;5.43;2.47;;;0.00;99.90;;;;;;6215839;23;20019;-82
2022/02/26 07:41:24;;;;;;;16.73;3.53;;;0.20;99.90;;;;;;6191018;23;20082;-82
2022/02/26 07:43:50;;;;;;;4.20;2.58;;;0.60;99.90;;;;;;6215023;23;20107;-82
2022/02/26 07:46:16;;;;;;;8.35;2.90;;;0.70;99.90;;;;;;6185635;23;20523;-81
2022/02/26 07:48:41;;;;;;;10.13;2.47;;;1.60;99.90;;;;;;6184641;23;20445;-81
2022/02/26 07:51:07;;;;;;;5.40;2.88;;;1.10;99.90;;;;;;6160401;23;20013;-83
2022/02/26 07:53:33;;;;;;;6.32;3.08;;;1.40;99.90;;;;;;6188196;23;20017;-81
2022/02/26 07:55:59;;;;;;;9.80;2.60;;;1.50;99.90;;;;;;6162135;23;20013;-83
2022/02/26 07:58:25;;;;;;;;;;;2.30;99.90;;;;;;6163649;23;20017;-81
2022/02/26 08:00:51;;;;;;;6.03;2.83;;;1.80;99.90;;;;;;6187923;23;20006;-81
2022/02/26 08:03:17;;;;;;;10.95;2.67;;;3.50;99.90;;;;;;6137790;23;20455;-83
2022/02/26 08:05:42;;;;;;;6.18;1.58;;;3.00;99.90;;;;;;6138160;23;20020;-83
2022/02/26 08:08:08;;;;;;;10.38;2.65;;;2.10;99.90;;;;;;6187285;23;20021;-82
2022/02/26 08:10:34;;;;;;;11.73;3.47;;;2.80;99.90;;;;;;6163262;23;20021;-81
2022/02/26 08:13:00;;;;;;;17.10;2.53;;;;;;;;;;6162061;23;20027;-82
2022/02/26 08:15:27;;;;;;;;;;;2.50;99.90;;;;;;6163990;23;20100;-81
2022/02/26 08:17:53;;;;;;;4.10;2.40;;;2.90;99.90;;;;;;6186473;23;19912;-82
2022/02/26 08:20:23;;;;;;;7.20;2.28;;;3.00;99.90;;;;;;6162834;23;20023;-81
2022/02/26 08:22:49;;;;;;;6.75;2.78;;;2.50;99.90;;;;;;6187167;23;20094;-81
2022/02/26 08:25:15;;;;;;;10.52;3.60;;;2.80;99.90;;;;;;6163159;23;20110;-80
2022/02/26 08:27:42;;;;;;;5.10;2.58;;;3.00;99.90;;;;;;6159414;23;20052;-80
2022/02/26 08:30:10;;;;;;;14.68;2.42;;;3.10;99.90;;;;;;6160285;23;20017;-81
2022/02/26 08:32:36;;;;;;;13.70;2.92;;;3.20;99.90;;;;;;6137865;23;20028;-78
2022/02/26 08:35:03;;;;;;;;;;;3.30;99.90;;;;;;6163353;23;20078;-82
2022/02/26 08:37:29;;;;;;;12.13;2.90;;;3.30;99.90;;;;;;6159563;23;19916;-81
2022/02/26 08:39:55;;;;;;;;;;;3.40;99.90;;;;;;6191030;23;20048;-84
2022/02/26 08:42:21;;;;;;;8.88;2.33;;;3.50;99.90;;;;;;6158568;23;20316;-78
2022/02/26 08:44:47;;;;;;;9.95;2.50;;;3.50;99.90;;;;;;6167653;23;20028;-77
2022/02/26 08:47:13;;;;;;;9.15;3.35;;;3.50;99.90;;;;;;6189552;23;20066;-83
2022/02/26 08:49:39;;;;;;;8.52;3.17;;;3.70;99.90;;;;;;6189666;23;20012;-78
2022/02/26 08:52:05;;;;;;;6.35;2.42;;;5.40;99.90;;;;;;6166086;23;20020;-81
2022/02/26 08:54:32;;;;;;;7.68;2.67;;;3.80;99.90;;;;;;6191909;23;20321;-83
2022/02/26 08:56:57;;;;;;;11.95;3.13;;;4.20;99.90;;;;;;6192240;23;20016;-84
2022/02/26 08:59:27;;;;;;;5.75;2.53;;;4.10;99.90;;;;;;6190430;23;20123;-82
2022/02/26 09:01:53;;;;;;;16.30;3.85;;;5.00;99.90;;;;;;6217071;23;20309;-83
2022/02/26 09:04:19;;;;;;;6.38;2.50;;;4.30;99.90;;;;;;6189979;23;20018;-79
2022/02/26 09:06:44;;;;;;;9.27;2.78;;;4.40;99.90;;;;;;6216050;23;20016;-82
2022/02/26 09:09:10;;;;;;;10.77;3.08;;;4.40;99.90;;;;;;6191626;23;20044;-79
2022/02/26 09:11:42;;;;;;;9.25;2.75;;;5.10;99.90;;;;;;6169575;23;20405;-79
2022/02/26 09:14:09;;;;;;;7.43;3.10;;;4.80;99.90;;;;;;6193875;23;20027;-79
2022/02/26 09:16:35;;;;;;;9.15;2.65;;;4.60;99.90;;;;;;6191850;23;20047;-79
2022/02/26 09:19:01;;;;;;;;;;;4.50;99.90;;;;;;6165974;23;20070;-78
2022/02/26 09:21:27;;;;;;;10.93;3.03;;;4.70;99.90;;;;;;6191805;23;20315;-79
2022/02/26 09:23:53;;;;;;;9.45;3.08;;;4.80;99.90;;;;;;6190789;23;20051;-79
2022/02/26 09:26:19;;;;;;;13.25;3.10;;;5.10;99.90;;;;;;6166785;23;20020;-79
2022/02/26 09:28:45;;;;;;;9.63;3.08;;;5.00;99.90;;;;;;6216146;23;20089;-78
2022/02/26 09:31:11;;;;;;;;;;;5.00;99.90;;;;;;6217786;23;20023;-79
2022/02/26 09:33:37;;;;;;;6.18;3.00;;;5.10;99.90;;;;;;6214669;23;19923;-81
2022/02/26 09:36:05;;;;;;;6.38;2.33;;;5.20;99.90;;;;;;6189163;23;20020;-79
2022/02/26 09:38:32;;;;;;;9.43;2.50;;;5.30;99.90;;;;;;6189346;23;20019;-78
2022/02/26 09:40:59;;;;;;;7.57;3.15;;;5.40;99.90;;;;;;6188424;23;20104;-79
2022/02/26 09:43:26;;;;;;;7.95;2.45;;;5.70;99.90;;;;;;6189584;23;20020;-78
2022/02/26 09:45:53;;;;;;;6.65;2.67;;;5.50;99.90;;;;;;6214979;23;20024;-78
2022/02/26 09:48:19;;;;;;;7.25;2.40;;;5.50;99.90;;;;;;6219254;23;20024;-80
2022/02/26 09:50:45;;;;;;;13.02;2.55;;;5.60;99.90;;;;;;6185875;23;20023;-81
2022/02/26 09:53:12;;;;;;;17.67;2.78;;;5.70;99.90;;;;;;6235243;23;20021;-82
2022/02/26 09:55:39;;;;;;;15.23;2.67;;;5.80;99.90;;;;;;6195019;23;20617;-80
2022/02/26 09:58:06;;;;;;;9.10;2.95;;;6.10;99.90;;;;;;6189676;23;20020;-80
2022/02/26 10:00:32;;;;;;;6.00;2.22;;;5.90;99.90;;;;;;6216213;23;20027;-79
2022/02/26 10:02:58;;;;;;;9.05;2.13;;;5.90;99.90;;;;;;6215464;23;20064;-79
2022/02/26 10:05:23;;;;;;;;;;;6.00;99.90;;;;;;6216376;23;20016;-81
2022/02/26 10:07:52;;;;;;;6.60;2.83;;;6.10;99.90;;;;;;6191077;23;20062;-81
2022/02/26 10:10:21;;;;;;;7.63;1.95;;;6.10;99.90;;;;;;6193026;23;20015;-79
2022/02/26 10:12:56;;;;;;;6.07;1.73;;;6.20;99.90;;;;;;6217484;23;20028;-77
2022/02/26 10:15:27;;;;;;;7.72;2.28;;;6.30;99.90;;;;;;6215930;23;20023;-81
2022/02/26 10:18:11;;;;;;;7.75;2.38;;;6.30;99.90;;;;;;6217350;23;20380;-80
2022/02/26 10:20:59;;;;;;;5.28;2.35;;;6.40;99.90;;;;;;6216459;23;20016;-79
2022/02/26 10:23:25;;;;;;;7.13;2.28;;;6.90;99.90;;;;;;6191276;23;20022;-82
2022/02/26 10:25:51;;;;;;;9.45;2.00;;;6.50;99.90;;;;;;6190628;23;20464;-80
2022/02/26 10:28:18;;;;;;;6.90;2.05;;;6.40;99.90;;;;;;6216178;23;20074;-80
2022/02/26 10:30:49;;;;;;;8.55;2.10;;;6.30;99.90;;;;;;6191086;23;20043;-81
2022/02/26 10:33:22;;;;;;;7.22;2.08;;;6.60;99.90;;;;;;6215299;23;20059;-80
2022/02/26 10:35:54;;;;;;;7.90;2.33;;;6.30;99.90;;;;;;6216312;23;20034;-79
2022/02/26 10:38:22;;;;;;;2.90;1.50;;;6.40;99.90;;;;;;6190975;23;20016;-80
2022/02/26 10:40:49;;;;;;;5.13;2.15;;;6.40;99.90;;;;;;6216756;23;20020;-80
2022/02/26 10:43:34;;;;;;;7.50;2.22;;;6.70;99.90;;;;;;6216199;23;20329;-79
2022/02/26 10:46:23;;;;;;;4.60;2.22;;;6.60;99.90;;;;;;6190153;23;20043;-81
2022/02/26 10:49:04;;;;;;;9.45;1.95;;;6.70;99.90;;;;;;6214827;23;20020;-81
2022/02/26 10:51:42;;;;;;;4.13;1.90;;;6.60;99.90;;;;;;6216532;23;20019;-81
2022/02/26 10:54:10;;;;;;;3.65;1.85;;;6.80;99.90;;;;;;6217072;23;20408;-81
2022/02/26 10:56:38;;;;;;;10.40;1.73;;;6.80;99.90;;;;;;6218644;23;20023;-81
2022/02/26 10:59:09;;;;;;;9.43;2.42;;;6.80;99.90;;;;;;6219293;23;20012;-79
2022/02/26 11:01:36;;;;;;;9.63;2.35;;;7.10;99.90;;;;;;6216092;23;20031;-82
2022/02/26 11:04:02;;;;;;;11.25;2.80;;;6.90;99.90;;;;;;6190440;23;20027;-82
2022/02/26 11:06:28;;;;;;;;;;;6.90;99.90;;;;;;6191522;23;20020;-79
2022/02/26 11:08:54;;;;;;;5.60;1.65;;;7.00;99.90;;;;;;6243035;23;19955;-79
2022/02/26 11:11:22;;;;;;;5.43;2.13;;;7.10;99.90;;;;;;6216234;23;20451;-80
2022/02/26 11:13:50;;;;;;;9.07;2.10;;;7.20;99.90;;;;;;6216624;23;20020;-80
2022/02/26 11:16:18;;;;;;;5.55;1.80;;;7.10;99.90;;;;;;6191530;23;20087;-80
2022/02/26 11:18:47;;;;;;;9.23;2.35;;;7.10;99.90;;;;;;6190790;23;20023;-81
2022/02/26 11:21:16;;;;;;;9.63;2.45;;;7.40;99.90;;;;;;6216203;23;20020;-80
2022/02/26 11:23:43;;;;;;;9.63;2.17;;;7.20;99.90;;;;;;6216071;23;20424;-80
2022/02/26 11:26:10;;;;;;;5.85;2.33;;;7.20;99.90;;;;;;6215981;23;20035;-79
2022/02/26 11:28:38;;;;;;;7.88;1.88;;;7.20;99.90;;;;;;6192962;23;20444;-82
2022/02/26 11:31:10;;;;;;;7.25;2.22;;;7.20;99.90;;;;;;6217799;23;20059;-78
2022/02/26 11:33:36;;;;;;;8.23;2.25;;;7.20;99.90;;;;;;6217106;23;20015;-78
2022/02/26 11:36:05;;;;;;;6.88;2.08;;;7.30;99.90;;;;;;6217445;23;20050;-80
2022/02/26 11:38:36;;;;;;;4.93;1.85;;;7.30;99.90;;;;;;6217467;23;20289;-80
2022/02/26 11:41:22;;;;;;;7.95;2.28;;;7.20;99.90;;;;;;6192600;23;20016;-80
2022/02/26 11:43:55;;;;;;;4.57;2.00;;;7.40;99.90;;;;;;6217996;23;20072;-80
2022/02/26 11:46:37;;;;;;;6.82;1.77;;;7.40;99.90;;;;;;6217872;23;20016;-79
2022/02/26 11:49:17;;;;;;;5.32;2.10;;;7.50;99.90;;;;;;6191236;23;20082;-79
2022/02/26 11:51:46;;;;;;;4.13;1.55;;;7.50;99.90;;;;;;6218076;23;20578;-81
2022/02/26 11:54:18;;;;;;;5.43;1.88;;;7.50;99.90;;;;;;6192437;23;20513;-79
2022/02/26 11:56:49;;;;;;;7.95;1.63;;;7.50;99.90;;;;;;6217736;23;20447;-77
2022/02/26 11:59:14;;;;;;;12.23;2.15;;;7.70;99.90;;;;;;6217319;23;20016;-78
2022/02/26 12:02:11;;;;;;;8.10;2.20;;;7.60;99.90;;;;;;6193057;23;20332;-79
2022/02/26 12:04:56;;;;;;;6.43;2.47;;;7.80;99.90;;;;;;6217122;23;20035;-80
2022/02/26 12:07:36;;;;;;;7.28;1.90;;;7.90;99.90;;;;;;6217821;23;20092;-79
2022/02/26 12:10:08;;;;;;;11.35;2.45;;;8.10;99.90;;;;;;6217560;23;20447;-79
2022/02/26 12:12:37;;;;;;;10.23;2.33;;;8.10;99.90;;;;;;6193850;23;20515;-80
2022/02/26 12:15:12;;;;;;;7.72;1.88;;;8.10;99.90;;;;;;6218582;23;20067;-80
2022/02/26 12:17:46;;;;;;;5.90;1.98;;;8.10;99.90;;;;;;6218514;23;20091;-80
2022/02/26 12:20:21;;;;;;;9.00;2.17;;;8.20;99.90;;;;;;6193288;23;20107;-80
2022/02/26 12:22:48;;;;;;;4.03;1.92;;;8.20;99.90;;;;;;6218126;23;20349;-80
2022/02/26 12:25:16;;;;;;;6.97;1.77;;;8.90;99.90;;;;;;6217393;23;20016;-79
2022/02/26 12:27:42;;;;;;;6.88;2.03;;;7.90;99.90;;;;;;6193114;23;20130;-77
2022/02/26 12:30:14;;;;;;;7.47;2.03;;;7.90;99.90;;;;;;6167420;23;20012;-80
2022/02/26 12:32:57;;;;;;;8.40;2.22;;;7.90;99.90;;;;;;6217942;23;20021;-80
2022/02/26 12:35:43;;;;;;;10.27;2.65;;;8.00;99.90;;;;;;6217664;23;20016;-80
2022/02/26 12:38:24;;;;;;;4.10;2.15;;;8.00;99.90;;;;;;6191469;23;20343;-79
2022/02/26 12:40:49;;;;;;;13.77;2.55;;;7.90;99.90;;;;;;6218367;23;20023;-80
2022/02/26 12:43:16;;;;;;;7.72;2.45;;;7.80;99.90;;;;;;6217228;23;20081;-79
2022/02/26 12:45:43;;;;;;;;;;;7.90;99.90;;;;;;6219045;23;20031;-80
2022/02/26 12:48:09;;;;;;;6.20;2.08;;;7.90;99.90;;;;;;6217539;23;19965;-79
2022/02/26 12:50:36;;;;;;;10.68;2.20;;;8.10;99.90;;;;;;6196970;23;20025;-79
2022/02/26 12:53:02;;;;;;;8.88;2.20;;;8.30;99.90;;;;;;6226712;23;20024;-79
2022/02/26 12:55:29;;;;;;;10.00;1.83;;;8.60;99.90;;;;;;6218650;23;20016;-79
2022/02/26 12:57:55;;;;;;;9.80;2.25;;;9.00;99.90;;;;;;6192869;23;20340;-79
2022/02/26 13:00:27;;;;;;;8.50;2.25;;;9.10;99.90;;;;;;6217531;23;20051;-80
2022/02/26 13:02:54;;;;;;;10.13;2.28;;;9.30;99.90;;;;;;6192397;23;20027;-79
2022/02/26 13:05:24;;;;;;;5.20;1.73;;;9.30;99.90;;;;;;6217038;23;20023;-80